createdAt,value
2018-12-11T00:02:23.357Z,9.97
2018-12-11T00:05:26.596Z,11.17
2018-12-11T00:08:29.746Z,10.47
2018-12-11T00:11:34.109Z,10.33
2018-12-11T00:14:37.623Z,13.73
2018-12-11T00:17:40.700Z,11.37
2018-12-11T00:20:44.840Z,7.70
2018-12-11T00:23:47.944Z,10.10
2018-12-11T00:26:51.047Z,11.37
2018-12-11T00:29:54.161Z,8.53
2018-12-11T00:32:57.231Z,8.03
2018-12-11T00:36:00.292Z,9.97
2018-12-11T00:39:05.138Z,11.03
2018-12-11T00:42:08.306Z,9.60
2018-12-11T00:45:11.407Z,10.20
2018-12-11T00:48:14.510Z,8.90
2018-12-11T00:51:17.665Z,10.13
2018-12-11T00:54:20.770Z,10.53
2018-12-11T00:57:23.877Z,9.50
2018-12-11T01:00:27.058Z,7.90
2018-12-11T01:03:30.134Z,8.77
2018-12-11T01:06:33.232Z,10.23
2018-12-11T01:09:36.329Z,10.20
2018-12-11T01:12:39.491Z,9.87
2018-12-11T01:15:42.619Z,7.80
2018-12-11T01:18:45.843Z,8.47
2018-12-11T01:21:48.946Z,8.43
2018-12-11T01:24:52.120Z,8.23
2018-12-11T01:27:55.186Z,9.60
2018-12-11T01:30:58.278Z,8.30
2018-12-11T01:34:01.498Z,8.97
2018-12-11T01:37:04.632Z,9.73
2018-12-11T01:40:07.870Z,8.87
2018-12-11T01:43:10.958Z,9.67
2018-12-11T01:46:14.012Z,9.87
2018-12-11T01:49:17.105Z,8.53
2018-12-11T01:52:20.273Z,9.63
2018-12-11T01:55:23.340Z,9.90
2018-12-11T01:58:26.450Z,13.93
2018-12-11T02:01:29.534Z,8.50
2018-12-11T02:04:32.708Z,9.13
2018-12-11T02:07:35.882Z,9.87
2018-12-11T02:10:39.074Z,8.93
2018-12-11T02:13:42.317Z,11.03
2018-12-11T02:16:45.523Z,9.00
2018-12-11T02:19:48.689Z,7.57
2018-12-11T02:22:51.934Z,10.67
2018-12-11T02:25:55.122Z,8.00
2018-12-11T02:28:58.273Z,8.67
2018-12-11T02:32:01.393Z,9.67
2018-12-11T02:35:04.758Z,6.70
2018-12-11T02:38:07.873Z,8.83
2018-12-11T02:41:11.043Z,8.57
2018-12-11T02:44:20.456Z,9.63
2018-12-11T02:47:23.530Z,8.67
2018-12-11T02:50:26.634Z,8.80
2018-12-11T02:53:29.710Z,6.97
2018-12-11T02:56:32.871Z,7.60
2018-12-11T02:59:36.075Z,7.23
2018-12-11T03:02:39.185Z,7.37
2018-12-11T03:05:42.274Z,11.67
2018-12-11T03:08:45.364Z,8.23
2018-12-11T03:11:48.467Z,8.70
2018-12-11T03:14:51.615Z,8.77
2018-12-11T03:17:54.782Z,8.90
2018-12-11T03:20:57.928Z,7.73
2018-12-11T03:24:01.016Z,8.10
2018-12-11T03:27:04.170Z,7.60
2018-12-11T03:30:07.377Z,8.20
2018-12-11T03:33:10.571Z,7.57
2018-12-11T03:36:13.705Z,7.10
2018-12-11T03:39:16.823Z,9.60
2018-12-11T03:42:19.895Z,7.87
2018-12-11T03:45:23.022Z,6.33
2018-12-11T03:48:26.334Z,8.80
2018-12-11T03:51:29.426Z,6.17
2018-12-11T03:54:32.486Z,6.87
2018-12-11T03:57:35.571Z,8.07
2018-12-11T04:00:38.769Z,7.73
2018-12-11T04:03:41.947Z,7.07
2018-12-11T04:06:45.188Z,8.23
2018-12-11T04:09:48.295Z,9.00
2018-12-11T04:12:51.402Z,5.93
2018-12-11T04:15:54.544Z,6.30
2018-12-11T04:18:57.638Z,8.43
2018-12-11T04:22:00.723Z,6.87
2018-12-11T04:25:06.291Z,6.63
2018-12-11T04:28:09.378Z,9.73
2018-12-11T04:31:12.467Z,8.83
2018-12-11T04:34:15.540Z,6.60
2018-12-11T04:37:18.720Z,8.10
2018-12-11T04:40:21.832Z,7.57
2018-12-11T04:43:25.024Z,6.33
2018-12-11T04:46:28.133Z,7.40
2018-12-11T04:49:31.232Z,7.13
2018-12-11T04:52:34.326Z,7.40
2018-12-11T04:55:37.572Z,5.67
2018-12-11T04:58:40.624Z,5.57
2018-12-11T05:01:43.801Z,5.90
2018-12-11T05:04:46.924Z,6.73
2018-12-11T05:07:50.053Z,5.07
2018-12-11T05:10:53.175Z,6.47
2018-12-11T05:13:56.268Z,6.80
2018-12-11T05:16:59.360Z,5.23
2018-12-11T05:20:02.450Z,4.53
2018-12-11T05:23:05.631Z,6.23
2018-12-11T05:26:08.690Z,7.00
2018-12-11T05:29:11.873Z,6.87
2018-12-11T05:32:14.973Z,5.50
2018-12-11T05:35:18.155Z,5.40
2018-12-11T05:38:21.238Z,5.50
2018-12-11T05:41:24.340Z,5.47
2018-12-11T05:44:27.408Z,4.57
2018-12-11T05:47:30.482Z,8.83
2018-12-11T05:50:33.744Z,5.50
2018-12-11T05:53:36.834Z,6.23
2018-12-11T05:56:40.007Z,5.40
2018-12-11T05:59:43.126Z,4.13
2018-12-11T06:02:46.271Z,5.43
2018-12-11T06:05:49.478Z,6.17
2018-12-11T06:08:52.620Z,7.00
2018-12-11T06:11:55.762Z,6.90
2018-12-11T06:14:59.029Z,6.23
2018-12-11T06:18:02.153Z,6.13
2018-12-11T06:21:05.249Z,5.20
2018-12-11T06:24:08.321Z,6.23
2018-12-11T06:27:11.406Z,6.43
2018-12-11T06:30:14.533Z,10.33
2018-12-11T06:33:17.674Z,11.07
2018-12-11T06:36:20.820Z,15.57
2018-12-11T06:39:23.923Z,9.90
2018-12-11T06:42:27.098Z,8.73
2018-12-11T06:45:30.349Z,7.60
2018-12-11T06:48:33.446Z,12.87
2018-12-11T06:51:36.524Z,10.97
2018-12-11T06:54:39.652Z,7.60
2018-12-11T06:57:42.735Z,10.33
2018-12-11T07:00:45.849Z,7.90
2018-12-11T07:03:48.929Z,8.47
2018-12-11T07:06:52.034Z,9.03
2018-12-11T07:09:55.147Z,5.37
2018-12-11T07:12:58.328Z,9.87
2018-12-11T07:16:01.474Z,7.77
2018-12-11T07:19:04.639Z,7.10
2018-12-11T07:22:07.735Z,9.30
2018-12-11T07:25:10.922Z,6.37
2018-12-11T07:28:14.035Z,7.47
2018-12-11T07:31:17.238Z,6.43
2018-12-11T07:34:20.515Z,4.67
2018-12-11T07:37:23.617Z,6.10
2018-12-11T07:40:26.692Z,8.43
2018-12-11T07:43:29.766Z,6.30
2018-12-11T07:46:32.850Z,4.90
2018-12-11T07:49:36.048Z,6.13
2018-12-11T07:52:39.137Z,6.47
2018-12-11T07:55:42.258Z,4.87
2018-12-11T07:58:45.451Z,5.50
2018-12-11T08:01:48.512Z,7.10
2018-12-11T08:04:51.760Z,5.90
2018-12-11T08:07:54.886Z,6.87
2018-12-11T08:10:57.985Z,6.63
2018-12-11T08:14:01.128Z,5.27
2018-12-11T08:17:04.173Z,4.97
2018-12-11T08:20:07.259Z,5.17
2018-12-11T08:23:10.414Z,6.73
2018-12-11T08:26:13.514Z,9.17
2018-12-11T08:29:16.660Z,6.60
2018-12-11T08:32:19.744Z,9.73
2018-12-11T08:35:22.885Z,12.77
2018-12-11T08:38:25.977Z,11.23
2018-12-11T08:41:29.073Z,10.23
2018-12-11T08:44:32.162Z,10.17
2018-12-11T08:47:35.274Z,12.07
2018-12-11T08:50:38.406Z,9.70
2018-12-11T08:53:41.486Z,7.73
2018-12-11T08:56:44.836Z,7.60
2018-12-11T08:59:48.591Z,9.20
2018-12-11T09:02:51.674Z,6.73
2018-12-11T09:05:54.778Z,9.50
2018-12-11T09:08:57.860Z,5.93
2018-12-11T09:12:01.019Z,7.60
2018-12-11T09:15:04.728Z,6.97
2018-12-11T09:18:07.885Z,7.20
2018-12-11T09:21:11.001Z,6.87
2018-12-11T09:24:14.078Z,4.57
2018-12-11T09:27:17.167Z,6.57
2018-12-11T09:30:20.265Z,6.03
2018-12-11T09:33:23.355Z,4.70
2018-12-11T09:36:26.443Z,7.37
2018-12-11T09:39:29.576Z,4.20
2018-12-11T09:42:32.723Z,6.20
2018-12-11T09:45:35.846Z,7.67
2018-12-11T09:48:38.935Z,4.37
2018-12-11T09:51:42.006Z,5.33
2018-12-11T09:54:45.163Z,5.17
2018-12-11T09:57:48.329Z,6.07
2018-12-11T10:00:51.513Z,5.23
2018-12-11T10:03:54.589Z,4.30
2018-12-11T10:06:57.839Z,4.23
2018-12-11T10:10:01.024Z,6.77
2018-12-11T10:13:04.320Z,5.00
2018-12-11T10:16:07.409Z,3.93
2018-12-11T10:19:10.502Z,5.00
2018-12-11T10:22:13.586Z,3.83
2018-12-11T10:25:16.759Z,4.90
2018-12-11T10:28:20.038Z,3.70
2018-12-11T10:31:23.172Z,3.40
2018-12-11T10:34:26.295Z,3.63
2018-12-11T10:37:30.510Z,3.67
2018-12-11T10:40:33.673Z,4.83
2018-12-11T10:43:36.756Z,4.67
2018-12-11T10:46:39.916Z,5.47
2018-12-11T10:49:42.987Z,6.17
2018-12-11T10:52:46.050Z,3.77
2018-12-11T10:55:49.132Z,2.70
2018-12-11T10:58:52.226Z,4.90
2018-12-11T11:01:57.318Z,3.00
2018-12-11T11:05:00.488Z,3.80
2018-12-11T11:08:03.639Z,3.33
2018-12-11T11:11:06.750Z,4.40
2018-12-11T11:14:09.866Z,3.87
2018-12-11T11:17:12.993Z,3.67
2018-12-11T11:20:16.141Z,3.33
2018-12-11T11:23:19.339Z,3.90
2018-12-11T11:26:22.618Z,2.67
2018-12-11T11:29:25.854Z,3.53
2018-12-11T11:32:28.954Z,4.00
2018-12-11T11:35:32.039Z,2.80
2018-12-11T11:38:35.158Z,3.27
2018-12-11T11:41:38.253Z,3.77
2018-12-11T11:44:41.535Z,5.67
2018-12-11T11:47:44.612Z,2.77
2018-12-11T11:50:47.767Z,2.50
2018-12-11T11:53:50.910Z,3.70
2018-12-11T11:56:54.004Z,3.20
2018-12-11T11:59:58.206Z,2.70
2018-12-11T12:03:01.323Z,3.50
2018-12-11T12:06:04.503Z,3.43
2018-12-11T12:09:07.986Z,4.73
2018-12-11T12:12:11.214Z,3.77
2018-12-11T12:15:14.411Z,3.43
2018-12-11T12:18:17.505Z,3.10
2018-12-11T12:21:20.626Z,4.67
2018-12-11T12:24:23.794Z,2.87
2018-12-11T12:27:26.931Z,3.93
2018-12-11T12:30:30.381Z,2.77
2018-12-11T12:33:33.468Z,3.27
2018-12-11T12:36:36.608Z,4.03
2018-12-11T12:39:39.825Z,2.33
2018-12-11T12:42:43.096Z,2.20
2018-12-11T12:45:46.190Z,2.20
2018-12-11T12:48:49.264Z,2.57
2018-12-11T12:51:53.306Z,2.57
2018-12-11T12:54:56.419Z,2.70
2018-12-11T12:57:59.512Z,2.93
2018-12-11T13:01:02.599Z,4.50
2018-12-11T13:04:05.704Z,3.77
2018-12-11T13:07:08.851Z,5.50
2018-12-11T13:10:12.001Z,8.77
2018-12-11T13:13:15.202Z,7.30
2018-12-11T13:16:18.411Z,10.90
2018-12-11T13:19:21.774Z,8.80
2018-12-11T13:22:24.878Z,9.93
2018-12-11T13:25:27.963Z,8.87
2018-12-11T13:28:31.186Z,7.10
2018-12-11T13:31:34.285Z,8.80
2018-12-11T13:34:37.361Z,7.97
2018-12-11T13:37:40.612Z,8.67
2018-12-11T13:40:43.950Z,6.20
2018-12-11T13:43:47.499Z,6.27
2018-12-11T13:46:51.006Z,6.23
2018-12-11T13:49:54.251Z,7.13
2018-12-11T13:52:57.332Z,6.17
2018-12-11T13:56:00.627Z,7.73
2018-12-11T13:59:03.825Z,7.80
2018-12-11T14:02:06.921Z,6.67
2018-12-11T14:05:10.067Z,8.73
2018-12-11T14:08:13.258Z,6.67
2018-12-11T14:11:16.423Z,6.43
2018-12-11T14:14:19.481Z,5.07
2018-12-11T14:17:22.587Z,6.30
2018-12-11T14:20:25.782Z,7.30
2018-12-11T14:23:28.875Z,4.27
2018-12-11T14:26:31.969Z,3.67
2018-12-11T14:29:35.124Z,3.23
2018-12-11T14:32:38.239Z,4.80
2018-12-11T14:35:41.356Z,4.63
2018-12-11T14:38:44.489Z,4.50
2018-12-11T14:41:47.725Z,3.10
2018-12-11T14:44:50.814Z,8.53
2018-12-11T14:47:54.568Z,6.00
2018-12-11T14:50:57.650Z,4.53
2018-12-11T14:54:00.752Z,5.00
2018-12-11T14:57:03.909Z,5.83
2018-12-11T15:00:09.248Z,4.33
2018-12-11T15:03:12.517Z,6.17
2018-12-11T15:06:15.702Z,5.77
2018-12-11T15:09:24.218Z,4.53
2018-12-11T15:12:27.512Z,5.17
2018-12-11T15:15:30.625Z,4.33
2018-12-11T15:18:33.770Z,5.93
2018-12-11T15:21:36.971Z,7.00
2018-12-11T15:24:40.081Z,7.00
2018-12-11T15:27:43.269Z,4.30
2018-12-11T15:30:46.760Z,2.93
2018-12-11T15:33:49.865Z,3.67
2018-12-11T15:36:52.935Z,3.60
2018-12-11T15:39:56.168Z,4.87
2018-12-11T15:43:00.081Z,3.60
2018-12-11T15:46:04.213Z,3.57
2018-12-11T15:49:07.303Z,5.53
2018-12-11T15:52:10.565Z,4.80
2018-12-11T15:55:13.693Z,5.03
2018-12-11T15:58:16.804Z,5.40
2018-12-11T16:01:20.077Z,5.17
2018-12-11T16:04:23.203Z,4.77
2018-12-11T16:07:26.364Z,7.17
2018-12-11T16:10:29.959Z,4.37
2018-12-11T16:13:34.324Z,4.87
2018-12-11T16:16:37.465Z,4.73
2018-12-11T16:19:40.616Z,6.47
2018-12-11T16:22:43.951Z,5.03
2018-12-11T16:25:47.356Z,7.13
2018-12-11T16:28:50.534Z,7.00
2018-12-11T16:31:53.751Z,10.70
2018-12-11T16:34:57.064Z,6.30
2018-12-11T16:38:01.347Z,7.53
2018-12-11T16:41:06.875Z,5.40
2018-12-11T16:44:10.226Z,8.27
2018-12-11T16:47:13.407Z,5.87
2018-12-11T16:50:19.533Z,3.83
2018-12-11T16:53:23.113Z,5.73
2018-12-11T16:56:27.027Z,4.17
2018-12-11T16:59:34.197Z,7.33
2018-12-11T17:02:37.419Z,4.40
2018-12-11T17:05:40.540Z,7.83
2018-12-11T17:08:43.649Z,5.87
2018-12-11T17:11:46.882Z,5.67
2018-12-11T17:14:50.226Z,5.13
2018-12-11T17:17:53.509Z,5.27
2018-12-11T17:20:56.780Z,4.10
2018-12-11T17:23:59.910Z,5.47
2018-12-11T17:27:03.106Z,4.77
2018-12-11T17:30:07.375Z,3.47
2018-12-11T17:33:10.589Z,3.93
2018-12-11T17:36:14.090Z,5.87
2018-12-11T17:39:17.288Z,5.27
2018-12-11T17:42:20.451Z,3.43
2018-12-11T17:45:23.610Z,6.27
2018-12-11T17:48:27.241Z,5.23
2018-12-11T17:51:30.478Z,4.60
2018-12-11T17:54:33.658Z,3.67
2018-12-11T17:57:37.126Z,4.80
2018-12-11T18:00:40.252Z,5.23
2018-12-11T18:03:43.373Z,7.37
2018-12-11T18:06:46.547Z,3.97
2018-12-11T18:09:49.809Z,3.37
2018-12-11T18:12:53.158Z,3.77
2018-12-11T18:15:56.254Z,4.17
2018-12-11T18:18:59.527Z,3.60
2018-12-11T18:22:02.750Z,8.47
2018-12-11T18:25:06.067Z,4.77
2018-12-11T18:28:09.191Z,6.63
2018-12-11T18:31:12.359Z,4.60
2018-12-11T18:34:15.977Z,12.20
2018-12-11T18:37:19.161Z,6.97
2018-12-11T18:40:22.379Z,5.03
2018-12-11T18:43:25.546Z,8.53
2018-12-11T18:46:28.678Z,5.80
2018-12-11T18:49:31.848Z,5.60
2018-12-11T18:52:35.038Z,4.40
2018-12-11T18:55:38.212Z,3.97
2018-12-11T18:58:41.400Z,4.13
2018-12-11T19:01:44.529Z,3.83
2018-12-11T19:04:52.971Z,6.03
2018-12-11T19:07:56.154Z,6.13
2018-12-11T19:10:59.342Z,5.07
2018-12-11T19:14:02.490Z,7.90
2018-12-11T19:17:05.772Z,9.48
2018-12-11T19:20:08.964Z,9.77
2018-12-11T19:23:18.793Z,3.63
2018-12-11T19:26:23.563Z,12.00
2018-12-11T19:29:26.983Z,16.13
2018-12-11T19:32:30.286Z,5.30
2018-12-11T19:35:33.441Z,8.83
2018-12-11T19:38:37.055Z,13.93
2018-12-11T19:41:41.274Z,10.07
2018-12-11T19:44:44.410Z,16.07
2018-12-11T19:47:47.582Z,13.40
2018-12-11T19:50:50.830Z,12.33
2018-12-11T19:53:53.946Z,13.13
2018-12-11T19:56:57.068Z,16.80
2018-12-11T20:00:00.167Z,10.60
2018-12-11T20:03:03.345Z,9.87
2018-12-11T20:06:06.583Z,13.30
2018-12-11T20:09:09.662Z,8.20
2018-12-11T20:12:12.868Z,9.73
2018-12-11T20:15:15.966Z,8.13
2018-12-11T20:18:19.190Z,7.20
2018-12-11T20:21:22.588Z,10.60
2018-12-11T20:24:25.891Z,9.00
2018-12-11T20:27:29.048Z,9.50
2018-12-11T20:30:32.163Z,6.77
2018-12-11T20:33:35.252Z,8.10
2018-12-11T20:36:38.386Z,7.70
2018-12-11T20:39:41.474Z,5.83
2018-12-11T20:42:44.594Z,5.63
2018-12-11T20:45:47.786Z,6.63
2018-12-11T20:48:50.871Z,5.00
2018-12-11T20:51:54.097Z,4.93
2018-12-11T20:54:57.194Z,6.00
2018-12-11T20:58:00.302Z,5.27
2018-12-11T21:01:03.400Z,5.27
2018-12-11T21:04:06.500Z,4.13
2018-12-11T21:07:09.639Z,5.80
2018-12-11T21:10:13.943Z,4.50
2018-12-11T21:13:17.050Z,4.93
2018-12-11T21:16:20.132Z,4.37
2018-12-11T21:19:24.277Z,3.63
2018-12-11T21:22:27.446Z,3.73
2018-12-11T21:25:30.598Z,5.10
2018-12-11T21:28:33.779Z,4.70
2018-12-11T21:31:36.953Z,3.80
2018-12-11T21:34:40.031Z,3.77
2018-12-11T21:37:43.125Z,3.00
2018-12-11T21:40:46.483Z,3.93
2018-12-11T21:43:49.745Z,4.17
2018-12-11T21:46:53.196Z,3.70
2018-12-11T21:49:56.263Z,2.63
2018-12-11T21:52:59.345Z,3.67
2018-12-11T21:56:02.429Z,7.20
2018-12-11T21:59:05.856Z,14.40
2018-12-11T22:02:31.574Z,3.03
2018-12-11T22:05:34.823Z,3.63
2018-12-11T22:08:38.000Z,6.10
2018-12-11T22:11:41.231Z,4.17
2018-12-11T22:14:45.430Z,4.80
2018-12-11T22:17:48.619Z,5.30
2018-12-11T22:20:51.797Z,6.17
2018-12-11T22:23:54.962Z,3.20
2018-12-11T22:26:58.178Z,4.60
2018-12-11T22:30:01.362Z,8.23
2018-12-11T22:33:04.505Z,5.73
2018-12-11T22:36:08.797Z,5.47
2018-12-11T22:39:12.032Z,5.33
2018-12-11T22:42:15.272Z,6.70
2018-12-11T22:45:18.466Z,5.77
2018-12-11T22:48:21.580Z,4.43
2018-12-11T22:51:25.110Z,7.27
2018-12-11T22:54:28.575Z,6.90
2018-12-11T22:57:31.720Z,22.90
2018-12-11T23:00:34.908Z,9.53
2018-12-11T23:03:38.242Z,7.07
2018-12-11T23:06:41.480Z,7.30
2018-12-11T23:09:45.153Z,6.40
2018-12-11T23:12:48.518Z,9.03
2018-12-11T23:15:53.004Z,3.90
2018-12-11T23:18:56.938Z,5.27
2018-12-11T23:22:00.279Z,3.17
2018-12-11T23:25:03.679Z,2.83
2018-12-11T23:28:06.810Z,3.37
2018-12-11T23:31:09.984Z,5.80
2018-12-11T23:34:13.209Z,3.20
2018-12-11T23:37:16.325Z,6.53
2018-12-11T23:40:19.516Z,4.27
2018-12-11T23:43:22.672Z,3.77
2018-12-11T23:46:25.852Z,4.77
2018-12-11T23:49:29.069Z,2.90
2018-12-11T23:52:38.572Z,2.57
2018-12-11T23:55:41.728Z,2.50
2018-12-11T23:58:45.050Z,3.53
